Time;durP1;ratioP1;P1;durP2;ratioP2;P2;SDS_P1;SDS_P2;PMS_P1;PMS_P2;Temp;Humidity;BMP_temperature;BMP_pressure;BME280_temperature;BME280_humidity;BME280_pressure;Samples;Min_cycle;Max_cycle;Signal;HPM_P1;HPM_P2
2023/09/03 00:00:17;;;;;;;15.65;14.20;;;;;;;17.42;100.00;102433.97;5186249;28;20116;-72
2023/09/03 00:02:48;;;;;;;16.40;14.85;;;;;;;17.36;100.00;102437.19;5204345;28;20065;-71
2023/09/03 00:05:20;;;;;;;15.25;13.63;;;;;;;17.38;100.00;102435.22;5204252;28;20120;-71
2023/09/03 00:07:51;;;;;;;15.90;14.35;;;;;;;17.37;100.00;102431.75;5203996;28;20040;-72
2023/09/03 00:10:23;;;;;;;16.60;14.85;;;;;;;17.41;100.00;102438.44;5185302;28;20460;-71
2023/09/03 00:12:55;;;;;;;16.17;14.63;;;;;;;17.35;100.00;102432.84;5202523;28;20042;-72
2023/09/03 00:15:26;;;;;;;17.17;15.45;;;;;;;17.32;100.00;102435.78;5200210;28;20295;-72
2023/09/03 00:17:57;;;;;;;16.50;15.00;;;;;;;17.27;100.00;102431.75;5203191;28;20398;-71
2023/09/03 00:20:28;;;;;;;16.85;15.25;;;;;;;17.26;100.00;102429.22;5202409;28;20292;-71
2023/09/03 00:23:00;;;;;;;16.42;14.73;;;;;;;17.30;100.00;102427.13;5203718;28;20026;-72
2023/09/03 00:25:37;;;;;;;18.10;14.77;;;;;;;17.40;100.00;102423.53;5201223;28;20033;-71
2023/09/03 00:28:08;;;;;;;16.00;14.40;;;;;;;17.23;100.00;102426.81;5202425;28;20423;-71
2023/09/03 00:30:40;;;;;;;16.50;14.95;;;;;;;17.22;100.00;102430.44;5202280;28;20025;-72
2023/09/03 00:33:11;;;;;;;15.32;13.73;;;;;;;17.26;100.00;102439.81;5202069;28;20049;-72
2023/09/03 00:35:45;;;;;;;16.65;14.88;;;;;;;17.19;100.00;102436.84;5200710;28;20057;-71
2023/09/03 00:38:17;;;;;;;15.68;14.15;;;;;;;17.14;100.00;102447.00;5199628;28;20291;-72
2023/09/03 00:40:48;;;;;;;15.30;13.85;;;;;;;17.15;100.00;102443.38;5202852;28;20032;-73
2023/09/03 00:43:20;;;;;;;16.00;14.23;;;;;;;17.19;100.00;102441.31;5203231;28;20084;-72
2023/09/03 00:45:52;;;;;;;14.88;13.55;;;;;;;17.17;100.00;102452.06;5203642;28;20041;-72
2023/09/03 00:48:26;;;;;;;14.75;13.40;;;;;;;17.15;100.00;102453.97;5203694;28;20423;-72
2023/09/03 00:51:01;;;;;;;15.70;13.88;;;;;;;17.10;100.00;102448.25;5201412;28;20052;-72
2023/09/03 00:53:35;;;;;;;14.88;13.48;;;;;;;17.12;100.00;102451.63;5202976;28;20274;-72
2023/09/03 00:56:08;;;;;;;14.68;13.18;;;;;;;17.13;100.00;102447.16;5202994;28;20136;-72
2023/09/03 00:58:41;;;;;;;14.25;12.90;;;;;;;17.12;100.00;102451.63;5202133;28;20022;-72
2023/09/03 01:01:13;;;;;;;14.65;13.15;;;;;;;17.10;100.00;102455.38;5200358;28;20018;-72
2023/09/03 01:03:46;;;;;;;14.75;13.45;;;;;;;17.13;100.00;102450.66;5202073;28;20380;-72
2023/09/03 01:06:17;;;;;;;14.50;13.20;;;;;;;17.01;100.00;102449.06;5201313;28;20492;-72
2023/09/03 01:08:48;;;;;;;14.07;12.77;;;;;;;17.00;100.00;102468.56;5202002;28;20175;-72
2023/09/03 01:11:35;;;;;;;14.57;13.15;;;;;;;17.28;100.00;102477.59;5202509;28;20122;-72
2023/09/03 01:14:32;;;;;;;14.82;13.43;;;;;;;17.27;100.00;102474.13;5202389;28;20037;-72
2023/09/03 01:17:12;;;;;;;14.18;12.88;;;;;;;17.04;100.00;102462.03;5203073;28;20061;-71
2023/09/03 01:20:05;;;;;;;13.25;12.05;;;;;;;17.29;100.00;102459.91;5202540;28;20037;-72
2023/09/03 01:22:55;;;;;;;14.20;12.77;;;;;;;16.98;100.00;102451.97;5200909;28;20556;-72
2023/09/03 01:25:38;;;;;;;14.27;12.77;;;;;;;17.10;100.00;102466.78;5202076;28;20088;-72
2023/09/03 01:28:52;;;;;;;13.13;11.93;;;;;;;17.28;100.00;102445.81;5201817;28;20046;-72
2023/09/03 01:31:24;;;;;;;13.50;12.25;;;;;;;17.01;100.00;102463.16;5198410;28;20033;-71
2023/09/03 01:34:01;;;;;;;14.20;12.63;;;;;;;17.03;100.00;102463.00;5201315;28;20041;-72
2023/09/03 01:36:34;;;;;;;13.32;12.07;;;;;;;16.98;100.00;102462.56;5203314;28;20033;-72
2023/09/03 01:39:05;;;;;;;15.60;11.75;;;;;;;16.93;100.00;102462.09;5202718;28;20039;-72
2023/09/03 01:41:38;;;;;;;13.55;12.40;;;;;;;16.94;100.00;102461.16;5201380;28;20030;-72
2023/09/03 01:44:09;;;;;;;13.27;11.98;;;;;;;16.92;100.00;102457.78;5202613;28;20092;-73
2023/09/03 01:46:48;;;;;;;13.32;12.02;;;;;;;16.92;100.00;102453.31;5204361;28;20046;-72
2023/09/03 01:49:40;;;;;;;13.90;12.50;;;;;;;17.20;100.00;102462.38;5207710;28;20115;-72
2023/09/03 01:52:37;;;;;;;14.95;13.55;;;;;;;17.05;100.00;102455.78;5197076;28;20052;-72
2023/09/03 01:55:11;;;;;;;12.98;11.77;;;;;;;16.78;100.00;102459.84;5205452;28;20324;-72
2023/09/03 01:57:53;;;;;;;13.52;11.80;;;;;;;16.89;100.00;102452.75;5205698;28;20032;-71
2023/09/03 02:00:24;;;;;;;12.73;11.52;;;;;;;16.63;100.00;102462.88;5207108;28;20061;-72
2023/09/03 02:02:57;;;;;;;13.52;12.25;;;;;;;16.56;100.00;102462.59;5206873;28;21060;-72
2023/09/03 02:05:28;;;;;;;12.90;11.70;;;;;;;16.58;100.00;102467.75;5206639;28;20044;-72
2023/09/03 02:07:59;;;;;;;12.57;11.48;;;;;;;16.45;100.00;102460.00;5207473;28;20487;-72
2023/09/03 02:10:31;;;;;;;14.32;12.82;;;;;;;16.39;100.00;102457.88;5205904;28;20022;-73
2023/09/03 02:13:02;;;;;;;12.70;11.60;;;;;;;16.55;100.00;102468.81;5204864;28;20026;-72
2023/09/03 02:15:33;;;;;;;12.68;11.43;;;;;;;16.46;100.00;102470.44;5204923;28;20152;-72
2023/09/03 02:18:05;;;;;;;14.68;12.45;;;;;;;16.47;100.00;102485.34;5206713;28;20029;-72
2023/09/03 02:20:36;;;;;;;12.98;11.73;;;;;;;16.42;100.00;102490.19;5205464;28;20037;-72
2023/09/03 02:23:07;;;;;;;12.55;11.45;;;;;;;16.37;100.00;102489.75;5202900;28;20352;-72
2023/09/03 02:25:40;;;;;;;14.82;11.82;;;;;;;16.38;100.00;102494.06;5204647;28;20977;-72
2023/09/03 02:28:11;;;;;;;13.68;11.95;;;;;;;16.35;100.00;102504.91;5205934;28;20034;-71
2023/09/03 02:30:42;;;;;;;12.80;11.55;;;;;;;16.27;100.00;102505.53;5204301;28;20052;-72
2023/09/03 02:33:14;;;;;;;13.02;11.73;;;;;;;16.23;100.00;102508.56;5206001;28;20029;-73
2023/09/03 02:35:45;;;;;;;12.18;11.15;;;;;;;16.21;100.00;102503.41;5204859;28;20033;-71
2023/09/03 02:38:16;;;;;;;12.25;11.15;;;;;;;16.18;100.00;102506.31;5205096;28;20438;-71
2023/09/03 02:40:47;;;;;;;13.57;12.13;;;;;;;16.24;100.00;102510.22;5205275;28;20117;-72
2023/09/03 02:43:19;;;;;;;14.15;12.73;;;;;;;16.18;100.00;102508.94;5206018;28;20305;-72
2023/09/03 02:45:51;;;;;;;12.88;11.60;;;;;;;16.20;100.00;102503.53;5204780;28;20231;-71
2023/09/03 02:48:22;;;;;;;13.35;12.15;;;;;;;16.16;100.00;102492.34;5205085;28;20076;-72
2023/09/03 02:50:54;;;;;;;14.18;11.95;;;;;;;16.13;100.00;102484.66;5204249;28;20026;-71
2023/09/03 02:53:25;;;;;;;13.40;12.07;;;;;;;16.10;100.00;102476.16;5204140;28;20030;-73
2023/09/03 02:55:58;;;;;;;13.45;11.90;;;;;;;16.04;100.00;102474.84;5204521;28;20033;-72
2023/09/03 02:58:29;;;;;;;12.32;11.13;;;;;;;15.99;100.00;102471.78;5204550;28;20042;-72
2023/09/03 03:01:06;;;;;;;13.40;11.90;;;;;;;16.16;100.00;102487.06;5203452;28;20026;-73
2023/09/03 03:03:37;;;;;;;12.68;11.57;;;;;;;15.97;100.00;102485.09;5203325;28;20116;-72
2023/09/03 03:06:09;;;;;;;13.10;11.80;;;;;;;15.97;100.00;102478.97;5199716;28;20083;-72
2023/09/03 03:08:41;;;;;;;13.93;12.60;;;;;;;15.98;100.00;102486.75;5204188;28;20029;-71
2023/09/03 03:11:15;;;;;;;12.75;11.52;;;;;;;15.99;100.00;102488.47;5203907;28;20472;-72
2023/09/03 03:13:47;;;;;;;13.73;12.40;;;;;;;15.93;100.00;102498.69;5205048;28;20032;-72
2023/09/03 03:16:19;;;;;;;13.77;12.47;;;;;;;15.93;100.00;102506.63;5203319;28;20451;-71
2023/09/03 03:18:51;;;;;;;13.13;11.85;;;;;;;15.88;100.00;102503.53;5204667;28;20045;-71
2023/09/03 03:21:23;;;;;;;12.70;11.60;;;;;;;15.86;100.00;102498.34;5203613;28;20044;-72
2023/09/03 03:23:54;;;;;;;14.00;12.60;;;;;;;15.84;100.00;102489.72;5203921;28;20030;-72
2023/09/03 03:26:26;;;;;;;12.63;11.48;;;;;;;15.85;100.00;102477.34;5203785;28;20041;-71
2023/09/03 03:28:58;;;;;;;13.77;12.27;;;;;;;15.85;100.00;102462.31;5203800;28;20041;-71
2023/09/03 03:31:29;;;;;;;13.27;12.18;;;;;;;15.84;100.00;102455.34;5203558;28;20066;-71
2023/09/03 03:34:00;;;;;;;13.93;12.63;;;;;;;15.82;100.00;102451.97;5204787;28;20079;-72
2023/09/03 03:36:32;;;;;;;13.30;12.05;;;;;;;15.95;100.00;102454.47;5204051;28;20029;-72
2023/09/03 03:39:04;;;;;;;13.88;12.57;;;;;;;15.92;100.00;102457.38;5207119;28;20088;-72
2023/09/03 03:41:36;;;;;;;15.40;13.87;;;;;;;15.97;100.00;102461.31;5203010;28;20034;-72
2023/09/03 03:44:08;;;;;;;13.60;12.40;;;;;;;15.94;100.00;102479.22;5204661;28;20365;-71
2023/09/03 03:46:39;;;;;;;14.18;12.88;;;;;;;15.91;100.00;102490.03;5203437;28;20632;-72
2023/09/03 03:49:10;;;;;;;14.63;13.32;;;;;;;15.90;100.00;102497.13;5187408;28;20567;-71
2023/09/03 03:51:41;;;;;;;13.98;12.77;;;;;;;15.90;100.00;102507.69;5203814;28;20125;-71
2023/09/03 03:54:13;;;;;;;13.98;12.65;;;;;;;15.87;100.00;102505.28;5203304;28;20049;-72
2023/09/03 03:56:44;;;;;;;13.95;12.55;;;;;;;15.89;100.00;102505.19;5205140;28;20022;-72
2023/09/03 03:59:15;;;;;;;12.98;11.60;;;;;;;15.84;100.00;102499.44;5204644;28;20415;-71
2023/09/03 04:01:46;;;;;;;12.82;11.63;;;;;;;15.75;100.00;102486.00;5203982;28;20459;-72
2023/09/03 04:04:19;;;;;;;13.23;11.93;;;;;;;15.84;100.00;102495.00;5203244;28;20036;-72
2023/09/03 04:06:50;;;;;;;12.45;11.35;;;;;;;15.78;100.00;102492.84;5185556;28;20037;-72
2023/09/03 04:09:22;;;;;;;13.32;12.07;;;;;;;15.74;100.00;102504.63;5203318;28;20318;-71
2023/09/03 04:11:53;;;;;;;13.52;12.23;;;;;;;15.71;100.00;102507.50;5202738;28;20188;-71
2023/09/03 04:14:24;;;;;;;13.13;11.93;;;;;;;15.71;100.00;102502.22;5201550;28;20554;-71
2023/09/03 04:16:55;;;;;;;13.23;11.95;;;;;;;15.67;100.00;102512.19;5204521;28;20478;-71
2023/09/03 04:19:27;;;;;;;13.73;12.43;;;;;;;15.69;100.00;102518.22;5202890;28;20501;-72
2023/09/03 04:21:59;;;;;;;13.18;11.98;;;;;;;15.69;100.00;102517.38;5202782;28;20120;-72
2023/09/03 04:24:30;;;;;;;13.07;11.98;;;;;;;15.74;100.00;102521.31;5201944;28;20164;-72
2023/09/03 04:27:02;;;;;;;14.02;12.80;;;;;;;15.71;100.00;102518.91;5203983;28;20479;-72
2023/09/03 04:29:33;;;;;;;13.02;11.82;;;;;;;15.71;100.00;102526.84;5203123;28;20053;-71
2023/09/03 04:32:05;;;;;;;12.18;10.88;;;;;;;15.63;100.00;102521.28;5200317;28;20029;-71
2023/09/03 04:34:36;;;;;;;12.48;11.20;;;;;;;15.69;100.00;102526.13;5199797;28;20057;-73
2023/09/03 04:37:07;;;;;;;11.70;10.55;;;;;;;15.64;100.00;102525.59;5202172;28;20030;-71
2023/09/03 04:39:39;;;;;;;13.75;12.40;;;;;;;15.60;100.00;102531.25;5204478;28;20252;-71
2023/09/03 04:42:10;;;;;;;12.50;11.18;;;;;;;15.51;100.00;102531.03;5201799;28;20029;-73
2023/09/03 04:44:42;;;;;;;11.80;10.77;;;;;;;15.58;100.00;102541.97;5201841;28;20721;-71
2023/09/03 04:47:13;;;;;;;12.57;11.47;;;;;;;15.50;100.00;102541.75;5202653;28;20026;-71
2023/09/03 04:49:45;;;;;;;13.63;10.90;;;;;;;15.47;100.00;102534.88;5203414;28;20848;-71
2023/09/03 04:52:16;;;;;;;12.88;11.40;;;;;;;15.44;100.00;102531.66;5203741;28;20029;-72
2023/09/03 04:54:47;;;;;;;13.82;10.98;;;;;;;15.42;100.00;102541.47;5203757;28;20487;-71
2023/09/03 04:57:19;;;;;;;11.93;10.55;;;;;;;15.44;100.00;102547.50;5201624;28;20526;-71
2023/09/03 04:59:51;;;;;;;12.40;11.20;;;;;;;15.40;100.00;102535.50;5203676;28;20042;-71
2023/09/03 05:02:22;;;;;;;11.23;10.13;;;;;;;15.41;100.00;102545.91;5203677;28;20503;-72
2023/09/03 05:04:54;;;;;;;12.48;11.00;;;;;;;15.38;100.00;102553.25;5204242;28;20044;-71
2023/09/03 05:07:25;;;;;;;12.30;11.23;;;;;;;15.34;100.00;102555.28;5201904;28;20030;-72
2023/09/03 05:09:57;;;;;;;12.00;10.65;;;;;;;15.39;100.00;102553.13;5203225;28;20753;-72
2023/09/03 05:12:28;;;;;;;12.85;11.55;;;;;;;15.44;100.00;102550.13;5203348;28;20034;-72
2023/09/03 05:14:59;;;;;;;12.52;11.32;;;;;;;15.45;100.00;102562.38;5203976;28;20029;-71
2023/09/03 05:17:31;;;;;;;12.55;11.32;;;;;;;15.45;100.00;102559.72;5202734;28;20069;-72
2023/09/03 05:20:03;;;;;;;13.75;11.20;;;;;;;15.51;100.00;102560.09;5202658;28;20048;-71
2023/09/03 05:22:34;;;;;;;11.85;10.63;;;;;;;15.54;100.00;102565.13;5204705;28;20030;-71
2023/09/03 05:25:06;;;;;;;13.82;12.35;;;;;;;15.45;100.00;102554.44;5206612;28;20041;-72
2023/09/03 05:27:37;;;;;;;12.50;11.35;;;;;;;15.48;100.00;102570.91;5207560;28;20034;-72
2023/09/03 05:30:10;;;;;;;13.38;11.85;;;;;;;15.50;100.00;102578.72;5206450;28;20034;-71
2023/09/03 05:32:41;;;;;;;12.25;11.05;;;;;;;15.53;100.00;102579.31;5206035;28;20026;-72
2023/09/03 05:35:12;;;;;;;12.90;11.68;;;;;;;15.53;100.00;102579.31;5207197;28;20041;-71
2023/09/03 05:37:45;;;;;;;12.10;11.00;;;;;;;15.58;100.00;102574.50;5207268;28;20490;-71
2023/09/03 05:40:16;;;;;;;13.52;12.32;;;;;;;15.63;100.00;102573.31;5207188;28;20132;-72
2023/09/03 05:42:48;;;;;;;13.30;12.10;;;;;;;15.63;100.00;102575.94;5207552;28;20601;-72
2023/09/03 05:45:19;;;;;;;13.00;11.70;;;;;;;15.67;100.00;102575.59;5204876;28;20458;-71
2023/09/03 05:47:50;;;;;;;13.98;12.48;;;;;;;15.74;100.00;102582.09;5207231;28;20033;-72
2023/09/03 05:50:21;;;;;;;12.45;11.25;;;;;;;15.75;100.00;102575.00;5206903;28;20038;-71
2023/09/03 05:52:53;;;;;;;13.38;11.98;;;;;;;15.78;100.00;102570.31;5207448;28;20079;-72
2023/09/03 05:55:24;;;;;;;12.40;10.85;;;;;;;15.75;100.00;102582.94;5205516;28;20026;-71
2023/09/03 05:57:55;;;;;;;12.55;10.98;;;;;;;15.77;100.00;102568.63;5205417;28;20570;-72
2023/09/03 06:00:27;;;;;;;12.10;10.82;;;;;;;15.95;100.00;102584.84;5206976;28;20128;-71
2023/09/03 06:02:58;;;;;;;11.65;10.63;;;;;;;15.89;100.00;102595.91;5206822;28;20036;-72
2023/09/03 06:05:29;;;;;;;12.63;11.50;;;;;;;15.93;100.00;102604.41;5209235;28;20038;-71
2023/09/03 06:08:00;;;;;;;14.55;12.77;;;;;;;15.99;100.00;102598.66;5208604;28;20033;-71
2023/09/03 06:10:32;;;;;;;13.68;12.48;;;;;;;15.98;100.00;102605.72;5206287;28;20030;-72
2023/09/03 06:13:03;;;;;;;14.90;13.50;;;;;;;16.07;100.00;102604.16;5207338;28;20033;-71
2023/09/03 06:15:35;;;;;;;14.60;13.13;;;;;;;16.09;100.00;102604.88;5207412;28;20091;-71
2023/09/03 06:18:06;;;;;;;15.38;13.65;;;;;;;16.21;100.00;102616.25;5208628;28;20122;-71
2023/09/03 06:20:37;;;;;;;18.27;16.63;;;;;;;16.25;100.00;102615.03;5207165;28;20026;-71
2023/09/03 06:23:09;;;;;;;19.42;17.63;;;;;;;16.30;100.00;102616.38;5207628;28;20568;-71
2023/09/03 06:25:41;;;;;;;20.80;18.90;;;;;;;16.40;100.00;102626.19;5205552;28;20486;-71
2023/09/03 06:28:12;;;;;;;20.27;18.37;;;;;;;16.36;100.00;102632.69;5189050;28;20022;-71
2023/09/03 06:30:44;;;;;;;21.55;19.70;;;;;;;16.43;100.00;102636.53;5206420;28;20056;-71
2023/09/03 06:33:15;;;;;;;20.80;18.95;;;;;;;16.51;100.00;102648.16;5206988;28;20526;-71
2023/09/03 06:35:46;;;;;;;22.75;20.58;;;;;;;16.56;100.00;102657.56;5202301;28;20424;-71
2023/09/03 06:38:17;;;;;;;22.20;20.20;;;;;;;16.57;100.00;102654.78;5201600;28;20430;-71
2023/09/03 06:40:49;;;;;;;22.95;20.95;;;;;;;16.60;100.00;102653.69;5207577;28;20595;-71
2023/09/03 06:43:21;;;;;;;24.42;22.15;;;;;;;16.62;100.00;102660.53;5206310;28;20483;-71
2023/09/03 06:45:52;;;;;;;23.02;21.00;;;;;;;16.76;100.00;102665.56;5205822;28;20460;-71
2023/09/03 06:48:23;;;;;;;23.40;20.98;;;;;;;16.70;100.00;102663.38;5202835;28;21618;-71
2023/09/03 06:50:56;;;;;;;22.52;20.63;;;;;;;16.76;100.00;102673.50;5206601;28;20538;-72
2023/09/03 06:53:27;;;;;;;24.52;22.33;;;;;;;16.78;100.00;102668.94;5206146;28;20034;-71
2023/09/03 06:55:58;;;;;;;23.02;20.95;;;;;;;16.81;100.00;102667.81;5206313;28;20411;-72
2023/09/03 06:58:29;;;;;;;23.05;20.98;;;;;;;16.90;100.00;102677.66;5207103;28;20032;-71
2023/09/03 07:01:03;;;;;;;24.60;22.40;;;;;;;16.97;100.00;102678.84;5204979;28;20044;-71
2023/09/03 07:03:34;;;;;;;24.05;21.95;;;;;;;16.99;100.00;102678.72;5207540;28;20411;-71
2023/09/03 07:06:05;;;;;;;22.23;20.20;;;;;;;17.01;100.00;102680.28;5206809;28;20160;-71
2023/09/03 07:08:37;;;;;;;22.33;20.08;;;;;;;17.13;100.00;102675.75;5206357;28;20096;-71
2023/09/03 07:11:08;;;;;;;22.52;20.38;;;;;;;17.21;100.00;102675.94;5205753;28;20149;-71
2023/09/03 07:13:39;;;;;;;20.73;18.70;;;;;;;17.31;100.00;102689.25;5207318;28;20084;-71
2023/09/03 07:16:10;;;;;;;22.05;20.02;;;;;;;17.33;100.00;102689.97;5202416;28;20037;-71
2023/09/03 07:18:41;;;;;;;21.00;19.13;;;;;;;17.40;100.00;102696.44;5207092;28;20036;-71
2023/09/03 07:21:13;;;;;;;20.23;18.52;;;;;;;17.52;100.00;102692.72;5206242;28;20120;-71
2023/09/03 07:23:44;;;;;;;20.67;18.70;;;;;;;17.63;100.00;102693.63;5206656;28;20213;-71
2023/09/03 07:26:15;;;;;;;21.10;19.10;;;;;;;17.72;100.00;102693.66;5207064;28;20079;-71
2023/09/03 07:28:47;;;;;;;21.40;19.38;;;;;;;17.77;100.00;102689.81;5205736;28;20128;-71
2023/09/03 07:31:18;;;;;;;20.88;18.88;;;;;;;17.96;100.00;102689.94;5206738;28;20069;-71
2023/09/03 07:33:49;;;;;;;20.90;19.10;;;;;;;18.03;100.00;102698.16;5204109;28;20376;-71
2023/09/03 07:36:20;;;;;;;20.13;18.17;;;;;;;18.09;100.00;102702.94;5204783;28;20036;-71
2023/09/03 07:38:52;;;;;;;22.92;20.63;;;;;;;18.18;100.00;102710.09;5204558;28;20037;-71
2023/09/03 07:41:23;;;;;;;20.48;18.67;;;;;;;18.33;100.00;102707.91;5204523;28;20033;-71
2023/09/03 07:43:54;;;;;;;22.25;20.25;;;;;;;18.47;100.00;102718.97;5205878;28;20065;-71
2023/09/03 07:46:26;;;;;;;20.80;18.75;;;;;;;18.40;100.00;102709.03;5201971;28;20049;-72
2023/09/03 07:48:57;;;;;;;23.52;21.42;;;;;;;18.58;100.00;102720.69;5186226;28;20418;-71
2023/09/03 07:51:29;;;;;;;21.85;19.77;;;;;;;18.69;100.00;102720.56;5203735;28;20060;-71
2023/09/03 07:54:00;;;;;;;22.90;20.58;;;;;;;18.81;100.00;102725.78;5187900;28;20033;-71
2023/09/03 07:56:31;;;;;;;23.23;20.95;;;;;;;18.93;100.00;102727.31;5202329;28;20032;-71
2023/09/03 07:59:03;;;;;;;23.63;21.52;;;;;;;19.06;100.00;102719.09;5203553;28;20478;-71
2023/09/03 08:01:34;;;;;;;21.85;19.95;;;;;;;19.13;100.00;102717.53;5201176;28;20579;-71
2023/09/03 08:04:05;;;;;;;21.35;19.55;;;;;;;19.19;100.00;102719.63;5203536;28;20025;-71
2023/09/03 08:06:37;;;;;;;22.33;20.42;;;;;;;19.33;100.00;102710.41;5203304;28;20029;-71
2023/09/03 08:09:08;;;;;;;22.00;20.00;;;;;;;19.43;100.00;102721.81;5201706;28;20407;-71
2023/09/03 08:11:39;;;;;;;20.93;18.93;;;;;;;19.50;100.00;102719.44;5203379;28;20080;-72
2023/09/03 08:14:11;;;;;;;20.70;18.70;;;;;;;19.66;100.00;102722.38;5205578;28;20488;-72
2023/09/03 08:16:43;;;;;;;20.10;18.33;;;;;;;19.71;100.00;102711.31;5204732;28;20494;-72
2023/09/03 08:19:14;;;;;;;20.80;19.00;;;;;;;19.78;100.00;102710.59;5203918;28;20121;-72
2023/09/03 08:21:47;;;;;;;19.98;18.23;;;;;;;19.97;100.00;102715.00;5202801;28;20235;-72
2023/09/03 08:24:18;;;;;;;;;;;;;;;20.70;100.00;102708.88;5203675;28;20072;-71
2023/09/03 08:26:49;;;;;;;18.97;17.27;;;;;;;20.24;100.00;102708.03;5205438;28;20064;-72
2023/09/03 08:29:21;;;;;;;18.77;17.07;;;;;;;20.37;100.00;102700.50;5203405;28;20037;-72
2023/09/03 08:31:52;;;;;;;19.23;17.52;;;;;;;20.41;100.00;102707.19;5202748;28;20049;-72
2023/09/03 08:34:23;;;;;;;18.23;16.53;;;;;;;20.54;100.00;102707.72;5204910;28;20087;-72
2023/09/03 08:36:54;;;;;;;18.40;16.80;;;;;;;20.62;100.00;102706.97;5203738;28;20026;-72
2023/09/03 08:39:26;;;;;;;17.53;15.83;;;;;;;20.69;100.00;102708.03;5206185;28;20037;-72
2023/09/03 08:41:57;;;;;;;18.20;16.70;;;;;;;20.76;100.00;102711.78;5185926;28;20026;-72
2023/09/03 08:44:36;;;;;;;17.93;16.37;;;;;;;21.01;100.00;102720.81;5205175;28;20107;-72
2023/09/03 08:47:12;;;;;;;17.17;15.63;;;;;;;21.00;100.00;102719.16;5203970;28;20483;-72
2023/09/03 08:49:44;;;;;;;16.02;14.73;;;;;;;21.10;100.00;102714.59;5203397;28;20076;-72
2023/09/03 08:52:16;;;;;;;16.60;14.82;;;;;;;21.20;100.00;102709.16;5201333;28;20061;-72
2023/09/03 08:54:47;;;;;;;16.07;14.67;;;;;;;21.27;100.00;102704.88;5200877;28;20786;-72
2023/09/03 08:57:18;;;;;;;13.80;12.27;;;;;;;21.59;100.00;102722.97;5203668;28;20125;-73
2023/09/03 08:59:50;;;;;;;14.20;12.80;;;;;;;21.69;100.00;102719.34;5202998;28;20400;-72
2023/09/03 09:02:22;;;;;;;12.57;11.47;;;;;;;21.81;100.00;102723.41;5202323;28;20053;-73
2023/09/03 09:04:53;;;;;;;12.85;11.57;;;;;;;22.01;100.00;102716.88;5205113;28;20692;-73
2023/09/03 09:07:25;;;;;;;14.73;13.43;;;;;;;22.16;100.00;102730.47;5205066;28;20041;-73
2023/09/03 09:09:58;;;;;;;16.33;13.67;;;;;;;22.29;100.00;102722.00;5203122;28;20022;-74
2023/09/03 09:12:52;;;;;;;15.32;13.88;;;;;;;22.59;100.00;102724.09;5203575;28;20838;-73
2023/09/03 09:15:23;;;;;;;14.50;13.10;;;;;;;22.54;100.00;102718.41;5194270;28;20561;-74
2023/09/03 09:17:54;;;;;;;14.00;12.60;;;;;;;22.59;100.00;102721.41;5175494;28;20056;-73
2023/09/03 09:20:26;;;;;;;14.13;12.73;;;;;;;22.65;100.00;102722.56;5202740;28;20045;-73
2023/09/03 09:22:57;;;;;;;12.77;11.43;;;;;;;22.78;100.00;102722.94;5201536;28;20034;-73
2023/09/03 09:25:28;;;;;;;16.43;12.63;;;;;;;22.94;100.00;102726.66;5204017;28;20198;-73
2023/09/03 09:28:09;;;;;;;12.43;11.33;;;;;;;23.10;100.00;102720.50;5204927;28;20021;-73
2023/09/03 09:30:54;;;;;;;13.27;11.57;;;;;;;23.17;100.00;102718.81;5185286;28;20057;-73
2023/09/03 09:33:25;;;;;;;10.55;9.60;;;;;;;;;;5202246;28;20421;-74
2023/09/03 09:36:10;;;;;;;9.33;8.43;;;;;;;23.40;100.00;102724.31;5204329;28;20033;-73
2023/09/03 09:38:42;;;;;;;10.15;8.95;;;;;;;23.23;100.00;102721.66;5187915;28;20475;-72
2023/09/03 09:41:26;;;;;;;10.93;9.47;;;;;;;23.42;100.00;102711.63;5197627;28;20037;-74
2023/09/03 09:43:58;;;;;;;10.13;9.13;;;;;;;23.25;100.00;102713.47;5204239;28;20091;-74
2023/09/03 09:46:31;;;;;;;9.98;8.98;;;;;;;23.27;100.00;102712.28;5167187;28;1093926;-74
2023/09/03 09:49:03;;;;;;;9.27;8.40;;;;;;;23.30;100.00;102720.00;5205565;28;20323;-74
2023/09/03 09:51:34;;;;;;;8.63;7.80;;;;;;;23.51;100.00;102708.75;5186789;28;20040;-74
2023/09/03 09:54:06;;;;;;;9.67;7.47;;;;;;;23.55;100.00;102703.88;5205138;28;20488;-74
2023/09/03 09:56:37;;;;;;;9.30;7.40;;;;;;;23.55;100.00;102693.19;5207206;28;20034;-73
2023/09/03 09:59:12;;;;;;;8.70;7.23;;;;;;;23.76;100.00;102703.38;5204946;28;20034;-74
2023/09/03 10:01:46;;;;;;;9.23;8.00;;;;;;;23.59;100.00;102702.53;5203497;28;21412;-73
2023/09/03 10:04:26;;;;;;;10.13;7.90;;;;;;;23.79;100.00;102697.69;5203243;28;20072;-73
2023/09/03 10:06:58;;;;;;;8.20;7.30;;;;;;;23.45;100.00;102688.03;5201650;28;20022;-73
2023/09/03 10:09:30;;;;;;;10.20;7.93;;;;;;;23.39;100.00;102698.56;5200031;28;20041;-74
2023/09/03 10:12:06;;;;;;;7.97;7.18;;;;;;;23.61;100.00;102707.72;5203714;28;20030;-74
2023/09/03 10:14:38;;;;;;;9.25;6.85;;;;;;;23.51;100.00;102706.06;5203561;28;20903;-74
2023/09/03 10:17:10;;;;;;;7.70;6.97;;;;;;;23.46;100.00;102697.72;5205359;28;20121;-74
2023/09/03 10:19:58;;;;;;;8.15;7.25;;;;;;;23.74;100.00;102700.84;5200408;28;20362;-73
2023/09/03 10:22:31;;;;;;;9.13;6.60;;;;;;;23.67;100.00;102696.34;5203836;28;20483;-73
2023/09/03 10:25:08;;;;;;;7.03;6.03;;;;;;;24.02;100.00;102703.94;5186938;28;20029;-74
2023/09/03 10:27:45;;;;;;;7.88;6.57;;;;;;;24.04;100.00;102696.56;5203374;28;20083;-73
2023/09/03 10:30:24;;;;;;;7.22;6.60;;;;;;;24.21;100.00;102701.84;5203185;28;20025;-73
2023/09/03 10:32:56;;;;;;;7.38;6.07;;;;;;;24.31;100.00;102693.59;5203571;28;20037;-74
2023/09/03 10:35:27;;;;;;;8.68;6.20;;;;;;;24.27;100.00;102699.28;5204171;28;20546;-73
2023/09/03 10:37:58;;;;;;;6.57;5.97;;;;;;;24.41;100.00;102705.78;5206426;28;20052;-75
2023/09/03 10:40:32;;;;;;;6.83;6.20;;;;;;;24.55;100.00;102701.50;5203622;28;20037;-73
2023/09/03 10:43:18;;;;;;;6.90;6.05;;;;;;;24.77;100.00;102697.16;5202066;28;20029;-74
2023/09/03 10:46:06;;;;;;;7.35;5.43;;;;;;;24.85;100.00;102690.88;5203656;28;20085;-73
2023/09/03 10:48:37;;;;;;;8.07;5.93;;;;;;;24.66;100.00;102698.44;5203308;28;20033;-75
2023/09/03 10:51:09;;;;;;;6.77;5.27;;;;;;;24.81;100.00;102695.78;5203617;28;20025;-74
2023/09/03 10:53:42;;;;;;;8.07;5.10;;;;;;;24.92;100.00;102698.03;5204320;28;21051;-73
2023/09/03 10:56:16;;;;;;;5.88;4.57;;;;;;;24.91;100.00;102696.38;5204462;28;20038;-74
2023/09/03 10:59:01;;;;;;;6.53;4.97;;;;;;;25.00;100.00;102708.72;5203897;28;20164;-74
2023/09/03 11:01:33;;;;;;;6.65;4.55;;;;;;;24.91;100.00;102709.78;5199995;28;20034;-74
2023/09/03 11:04:04;;;;;;;6.40;4.65;;;;;;;24.95;100.00;102700.34;5203294;28;20548;-74
2023/09/03 11:06:36;;;;;;;8.07;4.87;;;;;;;25.13;100.00;102701.94;5202772;28;20041;-74
2023/09/03 11:09:10;;;;;;;7.37;5.03;;;;;;;25.19;100.00;102701.19;5203346;28;20501;-74
2023/09/03 11:11:41;;;;;;;5.10;4.60;;;;;;;25.15;100.00;102703.41;5203020;28;20052;-74
2023/09/03 11:14:13;;;;;;;7.17;5.13;;;;;;;25.16;100.00;102707.75;5203072;28;20033;-75
2023/09/03 11:16:44;;;;;;;5.55;4.13;;;;;;;25.30;100.00;102699.91;5200253;28;20499;-73
2023/09/03 11:19:16;;;;;;;5.70;4.10;;;;;;;25.24;100.00;102693.44;5201983;28;20026;-74
2023/09/03 11:21:47;;;;;;;4.10;3.40;;;;;;;25.22;100.00;102704.34;5203114;28;20052;-74
2023/09/03 11:24:19;;;;;;;4.57;3.17;;;;;;;25.36;100.00;102705.38;5204182;28;20088;-74
2023/09/03 11:27:05;;;;;;;4.50;3.37;;;;;;;25.70;100.00;102706.72;5202366;28;20092;-74
2023/09/03 11:29:36;;;;;;;3.47;3.05;;;;;;;25.31;100.00;102707.78;5203709;28;20387;-74